Time,TemperatureF,DewpointF,PressureIn,WindDirection,WindDirectionDegrees,WindSpeedMPH,WindSpeedGustMPH,Humidity,HourlyPrecipIn,Conditions,Clouds,dailyrainin,SolarRadiationWatts/m^2,SoftwareType,DateUTC
2013-01-28 00:02:00,34.0,21.0,-100.00,NNW,340,0.0,3.0,59,-99.99,,,0.00,11.000000,,2013-01-28 00:02:00,
2013-01-28 00:33:00,33.0,24.0,-100.00,NNE,22,2.0,2.0,70,0.00,,,0.00,0.000000,,2013-01-28 00:33:00,
2013-01-28 00:42:00,33.0,24.0,-100.00,NNE,22,2.0,2.0,70,0.00,,,0.00,0.000000,,2013-01-28 00:42:00,
2013-01-28 00:52:00,33.0,24.0,-100.00,NNE,22,2.0,2.0,70,0.00,,,0.00,0.000000,,2013-01-28 00:52:00,
2013-01-28 01:02:00,33.0,24.0,-100.00,NNE,22,2.0,2.0,70,0.00,,,0.00,0.000000,,2013-01-28 01:02:00,
2013-01-28 01:33:00,32.0,22.0,-100.00,ESE,117,1.0,3.0,67,0.00,,,0.00,0.000000,,2013-01-28 01:33:00,
2013-01-28 01:42:00,32.0,22.0,-100.00,ESE,117,1.0,3.0,67,0.00,,,0.00,0.000000,,2013-01-28 01:42:00,
2013-01-28 01:52:00,32.0,22.0,-100.00,ESE,117,1.0,3.0,67,0.00,,,0.00,0.000000,,2013-01-28 01:52:00,
2013-01-28 02:02:00,32.0,22.0,-100.00,ESE,117,1.0,3.0,67,0.00,,,0.00,0.000000,,2013-01-28 02:02:00,
2013-01-28 02:32:00,31.0,22.0,-100.00,North,7,2.0,3.0,70,0.00,,,0.00,0.000000,,2013-01-28 02:32:00,
2013-01-28 02:42:00,31.0,22.0,-100.00,North,7,2.0,3.0,70,0.00,,,0.00,0.000000,,2013-01-28 02:42:00,
2013-01-28 02:53:00,31.0,22.0,-100.00,North,7,2.0,3.0,70,0.00,,,0.00,0.000000,,2013-01-28 02:53:00,
2013-01-28 03:02:00,31.0,22.0,-100.00,North,7,2.0,3.0,70,0.00,,,0.00,0.000000,,2013-01-28 03:02:00,
2013-01-28 03:32:00,30.0,23.0,-100.00,South,182,1.0,2.0,74,0.00,,,0.00,0.000000,,2013-01-28 03:32:00,
2013-01-28 03:42:00,30.0,23.0,-100.00,South,182,1.0,2.0,74,0.00,,,0.00,0.000000,,2013-01-28 03:42:00,
2013-01-28 03:53:00,30.0,23.0,-100.00,South,182,1.0,2.0,74,0.00,,,0.00,0.000000,,2013-01-28 03:53:00,
2013-01-28 04:02:00,30.0,23.0,-100.00,South,182,1.0,2.0,74,0.00,,,0.00,0.000000,,2013-01-28 04:02:00,
2013-01-28 04:32:00,31.0,24.0,-100.00,SSE,159,1.0,3.0,75,0.00,,,0.00,0.000000,,2013-01-28 04:32:00,
2013-01-28 04:42:00,31.0,24.0,-100.00,SSE,159,1.0,3.0,75,0.00,,,0.00,0.000000,,2013-01-28 04:42:00,
2013-01-28 04:52:00,31.0,24.0,-100.00,SSE,159,1.0,3.0,75,0.00,,,0.00,0.000000,,2013-01-28 04:52:00,
2013-01-28 05:04:00,31.0,24.0,-100.00,SSE,159,1.0,3.0,75,0.00,,,0.00,0.000000,,2013-01-28 05:04:00,
2013-01-28 05:32:00,31.0,23.0,-100.00,ESE,111,1.0,2.0,71,0.00,,,0.00,0.000000,,2013-01-28 05:32:00,
2013-01-28 05:42:00,31.0,23.0,-100.00,ESE,111,1.0,2.0,71,0.00,,,0.00,0.000000,,2013-01-28 05:42:00,
2013-01-28 05:52:00,31.0,23.0,-100.00,ESE,111,1.0,2.0,71,0.00,,,0.00,0.000000,,2013-01-28 05:52:00,
2013-01-28 06:02:00,31.0,23.0,-100.00,ESE,111,1.0,2.0,71,0.00,,,0.00,0.000000,,2013-01-28 06:02:00,
2013-01-28 06:32:00,31.0,23.0,-100.00,SSE,162,0.0,1.0,72,0.00,,,0.00,0.000000,,2013-01-28 06:32:00,
2013-01-28 06:42:00,31.0,23.0,-100.00,SSE,162,0.0,1.0,72,0.00,,,0.00,0.000000,,2013-01-28 06:42:00,
2013-01-28 06:52:00,31.0,23.0,-100.00,SSE,162,0.0,1.0,72,0.00,,,0.00,0.000000,,2013-01-28 06:52:00,
2013-01-28 07:03:00,31.0,23.0,-100.00,SSE,162,0.0,1.0,72,0.00,,,0.00,0.000000,,2013-01-28 07:03:00,
2013-01-28 07:32:00,31.0,27.0,-100.00,WSW,242,0.0,2.0,86,0.01,,,0.01,0.000000,,2013-01-28 07:32:00,
2013-01-28 07:42:00,31.0,27.0,-100.00,WSW,242,0.0,2.0,86,0.01,,,0.01,0.000000,,2013-01-28 07:42:00,
2013-01-28 07:52:00,31.0,27.0,-100.00,WSW,242,0.0,2.0,86,0.01,,,0.01,0.000000,,2013-01-28 07:52:00,
2013-01-28 08:01:00,31.0,27.0,-100.00,WSW,242,0.0,2.0,86,0.01,,,0.01,0.000000,,2013-01-28 08:01:00,
2013-01-28 08:32:00,31.0,27.0,-100.00,East,91,1.0,2.0,85,0.03,,,0.04,0.000000,,2013-01-28 08:32:00,
2013-01-28 08:42:00,31.0,27.0,-100.00,East,91,1.0,2.0,85,0.03,,,0.04,0.000000,,2013-01-28 08:42:00,
2013-01-28 08:52:00,31.0,27.0,-100.00,East,91,1.0,2.0,85,0.03,,,0.04,0.000000,,2013-01-28 08:52:00,
2013-01-28 09:02:00,31.0,27.0,-100.00,East,91,1.0,2.0,85,0.03,,,0.04,0.000000,,2013-01-28 09:02:00,
2013-01-28 09:32:00,31.0,28.0,-100.00,South,183,1.0,2.0,89,0.03,,,0.07,0.000000,,2013-01-28 09:32:00,
2013-01-28 09:42:00,31.0,28.0,-100.00,South,183,1.0,2.0,89,0.03,,,0.07,0.000000,,2013-01-28 09:42:00,
2013-01-28 09:52:00,31.0,28.0,-100.00,South,183,1.0,2.0,89,0.03,,,0.07,0.000000,,2013-01-28 09:52:00,
2013-01-28 10:02:00,31.0,28.0,-100.00,South,183,1.0,2.0,89,0.03,,,0.07,0.000000,,2013-01-28 10:02:00,
2013-01-28 10:32:00,32.0,30.0,-100.00,SE,135,1.0,2.0,91,0.01,,,0.08,0.000000,,2013-01-28 10:32:00,
2013-01-28 10:42:00,32.0,30.0,-100.00,SE,135,1.0,2.0,91,0.01,,,0.08,0.000000,,2013-01-28 10:42:00,
2013-01-28 10:52:00,32.0,30.0,-100.00,SE,135,1.0,2.0,91,0.01,,,0.08,0.000000,,2013-01-28 10:52:00,
2013-01-28 11:02:00,32.0,30.0,-100.00,SE,135,1.0,2.0,91,0.01,,,0.08,0.000000,,2013-01-28 11:02:00,
2013-01-28 11:32:00,32.0,30.0,-100.00,SE,142,2.0,3.0,93,0.06,,,0.14,0.000000,,2013-01-28 11:32:00,
2013-01-28 11:42:00,32.0,30.0,-100.00,SE,142,2.0,3.0,93,0.06,,,0.14,0.000000,,2013-01-28 11:42:00,
2013-01-28 11:52:00,32.0,30.0,-100.00,SE,142,2.0,3.0,93,0.06,,,0.14,0.000000,,2013-01-28 11:52:00,
2013-01-28 12:03:00,32.0,30.0,-100.00,SE,142,2.0,3.0,93,0.06,,,0.14,0.000000,,2013-01-28 12:03:00,
2013-01-28 12:33:00,32.0,30.0,-100.00,SSE,154,2.0,4.0,93,0.01,,,0.15,0.000000,,2013-01-28 12:33:00,
2013-01-28 12:42:00,32.0,30.0,-100.00,SSE,154,2.0,4.0,93,0.01,,,0.15,0.000000,,2013-01-28 12:42:00,
2013-01-28 12:53:00,32.0,30.0,-100.00,SSE,154,2.0,4.0,93,0.01,,,0.15,0.000000,,2013-01-28 12:53:00,
2013-01-28 13:03:00,32.0,30.0,-100.00,SSE,154,2.0,4.0,93,0.01,,,0.15,0.000000,,2013-01-28 13:03:00,
2013-01-28 13:33:00,32.0,30.0,-100.00,East,90,1.0,3.0,93,0.00,,,0.15,3.000000,,2013-01-28 13:33:00,
2013-01-28 13:43:00,32.0,30.0,-100.00,East,90,1.0,3.0,93,0.00,,,0.15,3.000000,,2013-01-28 13:43:00,
2013-01-28 13:53:00,32.0,30.0,-100.00,East,90,1.0,3.0,93,0.00,,,0.15,3.000000,,2013-01-28 13:53:00,
2013-01-28 14:03:00,32.0,30.0,-100.00,East,90,1.0,3.0,93,0.00,,,0.15,3.000000,,2013-01-28 14:03:00,
2013-01-28 14:33:00,34.0,32.0,-100.00,ESE,107,1.0,2.0,93,0.02,,,0.17,71.000000,,2013-01-28 14:33:00,
2013-01-28 14:43:00,34.0,32.0,-100.00,ESE,107,1.0,2.0,93,0.02,,,0.17,71.000000,,2013-01-28 14:43:00,
2013-01-28 14:53:00,34.0,32.0,-100.00,ESE,107,1.0,2.0,93,0.02,,,0.17,71.000000,,2013-01-28 14:53:00,
2013-01-28 15:03:00,34.0,32.0,-100.00,ESE,107,1.0,2.0,93,0.02,,,0.17,71.000000,,2013-01-28 15:03:00,
2013-01-28 15:33:00,37.0,35.0,-100.00,SE,125,2.0,4.0,91,0.00,,,0.17,208.000000,,2013-01-28 15:33:00,
2013-01-28 15:43:00,37.0,35.0,-100.00,SE,125,2.0,4.0,91,0.00,,,0.17,208.000000,,2013-01-28 15:43:00,
2013-01-28 15:53:00,37.0,35.0,-100.00,SE,125,2.0,4.0,91,0.00,,,0.17,208.000000,,2013-01-28 15:53:00,
2013-01-28 16:04:00,37.0,35.0,-100.00,SE,125,2.0,4.0,91,0.00,,,0.17,208.000000,,2013-01-28 16:04:00,
2013-01-28 16:33:00,38.0,36.0,-100.00,SE,141,3.0,5.0,91,0.00,,,0.17,173.000000,,2013-01-28 16:33:00,
2013-01-28 16:43:00,38.0,36.0,-100.00,SE,141,3.0,5.0,91,0.00,,,0.17,173.000000,,2013-01-28 16:43:00,
2013-01-28 16:53:00,38.0,36.0,-100.00,SE,141,3.0,5.0,91,0.00,,,0.17,173.000000,,2013-01-28 16:53:00,
2013-01-28 17:02:00,38.0,36.0,-100.00,SE,141,3.0,5.0,91,0.00,,,0.17,173.000000,,2013-01-28 17:02:00,
2013-01-28 17:33:00,45.0,39.0,-100.00,SSE,149,4.0,5.0,79,0.00,,,0.17,290.000000,,2013-01-28 17:33:00,
2013-01-28 17:42:00,45.0,39.0,-100.00,SSE,149,4.0,5.0,79,0.00,,,0.17,290.000000,,2013-01-28 17:42:00,
2013-01-28 17:53:00,45.0,39.0,-100.00,SSE,149,4.0,5.0,79,0.00,,,0.17,290.000000,,2013-01-28 17:53:00,
2013-01-28 18:03:00,45.0,39.0,-100.00,SSE,149,4.0,5.0,79,0.00,,,0.17,290.000000,,2013-01-28 18:03:00,
2013-01-28 18:33:00,48.0,40.0,-100.00,SSE,153,4.0,7.0,75,0.00,,,0.17,323.000000,,2013-01-28 18:33:00,
2013-01-28 18:43:00,48.0,40.0,-100.00,SSE,153,4.0,7.0,75,0.00,,,0.17,323.000000,,2013-01-28 18:43:00,
2013-01-28 18:53:00,48.0,40.0,-100.00,SSE,153,4.0,7.0,75,0.00,,,0.17,323.000000,,2013-01-28 18:53:00,
2013-01-28 19:02:00,48.0,40.0,-100.00,SSE,153,4.0,7.0,75,0.00,,,0.17,323.000000,,2013-01-28 19:02:00,
2013-01-28 19:33:00,49.0,40.0,-100.00,SSE,147,6.0,9.0,71,0.00,,,0.17,353.000000,,2013-01-28 19:33:00,
2013-01-28 19:43:00,49.0,40.0,-100.00,SSE,147,6.0,9.0,71,0.00,,,0.17,353.000000,,2013-01-28 19:43:00,
2013-01-28 19:53:00,49.0,40.0,-100.00,SSE,147,6.0,9.0,71,0.00,,,0.17,353.000000,,2013-01-28 19:53:00,
2013-01-28 20:03:00,49.0,40.0,-100.00,SSE,147,6.0,9.0,71,0.00,,,0.17,353.000000,,2013-01-28 20:03:00,
2013-01-28 20:33:00,51.0,40.0,-100.00,East,97,2.0,6.0,66,0.00,,,0.17,214.000000,,2013-01-28 20:33:00,
2013-01-28 20:43:00,51.0,40.0,-100.00,East,97,2.0,6.0,66,0.00,,,0.17,214.000000,,2013-01-28 20:43:00,
2013-01-28 20:53:00,51.0,40.0,-100.00,East,97,2.0,6.0,66,0.00,,,0.17,214.000000,,2013-01-28 20:53:00,
2013-01-28 21:03:00,51.0,40.0,-100.00,East,97,2.0,6.0,66,0.00,,,0.17,214.000000,,2013-01-28 21:03:00,
2013-01-28 21:34:00,51.0,41.0,-100.00,ESE,122,3.0,8.0,68,0.00,,,0.17,167.000000,,2013-01-28 21:34:00,
2013-01-28 21:43:00,51.0,41.0,-100.00,ESE,122,3.0,8.0,68,0.00,,,0.17,167.000000,,2013-01-28 21:43:00,
2013-01-28 21:53:00,51.0,41.0,-100.00,ESE,122,3.0,8.0,68,0.00,,,0.17,167.000000,,2013-01-28 21:53:00,
2013-01-28 22:02:00,51.0,41.0,-100.00,ESE,122,3.0,8.0,68,0.00,,,0.17,167.000000,,2013-01-28 22:02:00,
2013-01-28 22:33:00,48.0,41.0,-100.00,NE,41,2.0,4.0,78,0.00,,,-99.99,48.000000,,2013-01-28 22:33:00,
2013-01-28 22:42:00,48.0,41.0,-100.00,NE,41,2.0,4.0,78,0.00,,,-99.99,48.000000,,2013-01-28 22:42:00,
2013-01-28 22:53:00,48.0,41.0,-100.00,NE,41,2.0,4.0,78,0.00,,,-99.99,48.000000,,2013-01-28 22:53:00,
2013-01-28 23:03:00,48.0,41.0,-100.00,NE,41,2.0,4.0,78,0.00,,,-99.99,48.000000,,2013-01-28 23:03:00,
2013-01-28 23:33:00,45.0,40.0,-100.00,NNE,21,1.0,3.0,83,0.00,,,0.17,6.000000,,2013-01-28 23:33:00,
2013-01-28 23:42:00,45.0,40.0,-100.00,NNE,21,1.0,3.0,83,0.00,,,0.17,6.000000,,2013-01-28 23:42:00,
2013-01-28 23:53:00,45.0,40.0,-100.00,NNE,21,1.0,3.0,83,0.00,,,0.17,6.000000,,2013-01-28 23:53:00,